DNO284 LGRP-LGZA
Flight info
| Callsign | DNO284 |
|---|---|
| Flight time | 1h 7m |
| Altitude | 32000 |
| Route | CODIC1Y CODIC UL995 KEA UL52 KOR UN604 ARA ARA1M |
| Aircraft | A320/M-SDE3FGHIRWY/LB1 |
Departure
| Time | 2026-04-28 08:32 |
|---|---|
| Airport | Rhodes International Airport "Diagoras" (LGRP) |
Arrival
| Time | 2026-04-28 09:39 |
|---|---|
| Airport | Zakynthos International Airport Dionysios Solomos (LGZA) |
| Time | Latitude | Longitude | Altitude | Speed | Heading |
|---|---|---|---|---|---|
| 2026-04-28 08:05 | 36.40353 | 28.09090 | 28 ft | 0 kts | 160° |
| 2026-04-28 08:23 | 36.40372 | 28.09081 | 28 ft | 4 kts | 160° |
| 2026-04-28 08:23 | 36.40393 | 28.09072 | 28 ft | 4 kts | 149° |
| 2026-04-28 08:23 | 36.40409 | 28.09051 | 28 ft | 4 kts | 95° |
| 2026-04-28 08:24 | 36.40405 | 28.09021 | 28 ft | 2 kts | 71° |
| 2026-04-28 08:24 | 36.40412 | 28.09045 | 28 ft | 4 kts | 70° |
| 2026-04-28 08:24 | 36.40414 | 28.09052 | 28 ft | 0 kts | 70° |
| 2026-04-28 08:26 | 36.40414 | 28.09054 | 28 ft | 2 kts | 70° |
| 2026-04-28 08:26 | 36.40422 | 28.09081 | 28 ft | 4 kts | 69° |
| 2026-04-28 08:26 | 36.40434 | 28.09121 | 28 ft | 6 kts | 70° |
| 2026-04-28 08:27 | 36.40450 | 28.09176 | 28 ft | 9 kts | 70° |
| 2026-04-28 08:27 | 36.40476 | 28.09264 | 28 ft | 13 kts | 70° |
| 2026-04-28 08:27 | 36.40526 | 28.09363 | 28 ft | 14 kts | 33° |
| 2026-04-28 08:27 | 36.40597 | 28.09450 | 28 ft | 15 kts | 66° |
| 2026-04-28 08:28 | 36.40635 | 28.09573 | 28 ft | 16 kts | 70° |
| 2026-04-28 08:28 | 36.40673 | 28.09703 | 28 ft | 16 kts | 70° |
| 2026-04-28 08:28 | 36.40709 | 28.09824 | 28 ft | 14 kts | 70° |
| 2026-04-28 08:28 | 36.40740 | 28.09934 | 28 ft | 13 kts | 70° |
| 2026-04-28 08:29 | 36.40769 | 28.10032 | 28 ft | 12 kts | 70° |
| 2026-04-28 08:29 | 36.40795 | 28.10121 | 28 ft | 10 kts | 70° |
| 2026-04-28 08:29 | 36.40819 | 28.10201 | 28 ft | 10 kts | 70° |
| 2026-04-28 08:29 | 36.40848 | 28.10300 | 28 ft | 12 kts | 70° |
| 2026-04-28 08:30 | 36.40876 | 28.10394 | 28 ft | 11 kts | 70° |
| 2026-04-28 08:30 | 36.40929 | 28.10433 | 28 ft | 9 kts | 353° |
| 2026-04-28 08:30 | 36.40978 | 28.10398 | 27 ft | 8 kts | 303° |
| 2026-04-28 08:30 | 36.41009 | 28.10333 | 27 ft | 10 kts | 304° |
| 2026-04-28 08:31 | 36.41010 | 28.10223 | 27 ft | 22 kts | 251° |
| 2026-04-28 08:31 | 36.40875 | 28.09769 | 27 ft | 89 kts | 250° |
| 2026-04-28 08:31 | 36.40597 | 28.08818 | 29 ft | 143 kts | 250° |
| 2026-04-28 08:31 | 36.40225 | 28.07578 | 466 ft | 151 kts | 250° |
| 2026-04-28 08:32 | 36.39975 | 28.06311 | 1070 ft | 154 kts | 266° |
| 2026-04-28 08:32 | 36.39888 | 28.04988 | 1695 ft | 157 kts | 268° |
| 2026-04-28 08:32 | 36.39800 | 28.03606 | 2183 ft | 164 kts | 268° |
| 2026-04-28 08:32 | 36.39704 | 28.02175 | 2722 ft | 169 kts | 266° |
| 2026-04-28 08:33 | 36.39600 | 28.00716 | 3305 ft | 172 kts | 266° |
| 2026-04-28 08:33 | 36.39480 | 27.99181 | 3597 ft | 192 kts | 265° |
| 2026-04-28 08:33 | 36.39336 | 27.97430 | 3835 ft | 217 kts | 265° |
| 2026-04-28 08:33 | 36.39170 | 27.95463 | 4174 ft | 241 kts | 265° |
| 2026-04-28 08:34 | 36.38987 | 27.93301 | 4647 ft | 261 kts | 264° |
| 2026-04-28 08:34 | 36.38795 | 27.91037 | 5459 ft | 266 kts | 264° |
| 2026-04-28 08:34 | 36.38619 | 27.88728 | 6295 ft | 272 kts | 268° |
| 2026-04-28 08:34 | 36.38829 | 27.86392 | 7114 ft | 276 kts | 284° |
| 2026-04-28 08:35 | 36.39565 | 27.84176 | 7918 ft | 280 kts | 300° |
| 2026-04-28 08:35 | 36.40718 | 27.82252 | 8751 ft | 284 kts | 308° |
| 2026-04-28 08:35 | 36.41959 | 27.80327 | 9587 ft | 287 kts | 308° |
| 2026-04-28 08:35 | 36.43211 | 27.78371 | 10307 ft | 294 kts | 308° |
| 2026-04-28 08:36 | 36.44532 | 27.76298 | 10547 ft | 318 kts | 308° |
| 2026-04-28 08:36 | 36.45929 | 27.74088 | 11016 ft | 330 kts | 306° |
| 2026-04-28 08:36 | 36.47097 | 27.71607 | 11704 ft | 335 kts | 294° |
| 2026-04-28 08:36 | 36.48036 | 27.68944 | 12471 ft | 338 kts | 294° |
| 2026-04-28 08:37 | 36.48988 | 27.66256 | 13201 ft | 342 kts | 294° |
| 2026-04-28 08:37 | 36.49954 | 27.63540 | 13912 ft | 345 kts | 294° |
| 2026-04-28 08:37 | 36.50929 | 27.60801 | 14567 ft | 348 kts | 294° |
| 2026-04-28 08:37 | 36.51899 | 27.58079 | 15226 ft | 350 kts | 294° |
| 2026-04-28 08:38 | 36.52891 | 27.55294 | 15880 ft | 353 kts | 294° |
| 2026-04-28 08:38 | 36.53885 | 27.52493 | 16532 ft | 355 kts | 294° |
| 2026-04-28 08:38 | 36.54882 | 27.49669 | 17178 ft | 358 kts | 294° |
| 2026-04-28 08:38 | 36.55885 | 27.46826 | 17831 ft | 360 kts | 293° |
| 2026-04-28 08:39 | 36.56892 | 27.43967 | 18473 ft | 362 kts | 293° |
| 2026-04-28 08:39 | 36.57910 | 27.41083 | 19011 ft | 365 kts | 293° |
| 2026-04-28 08:39 | 36.58934 | 27.38178 | 19548 ft | 368 kts | 293° |
| 2026-04-28 08:39 | 36.59949 | 27.35294 | 20097 ft | 371 kts | 293° |
| 2026-04-28 08:40 | 36.60985 | 27.32346 | 20642 ft | 373 kts | 294° |
| 2026-04-28 08:40 | 36.62030 | 27.29372 | 21194 ft | 376 kts | 294° |
| 2026-04-28 08:40 | 36.63081 | 27.26374 | 21730 ft | 379 kts | 294° |
| 2026-04-28 08:40 | 36.64135 | 27.23357 | 22271 ft | 382 kts | 294° |
| 2026-04-28 08:41 | 36.65198 | 27.20316 | 22816 ft | 384 kts | 294° |
| 2026-04-28 08:41 | 36.66267 | 27.17252 | 23337 ft | 387 kts | 294° |
| 2026-04-28 08:41 | 36.67340 | 27.14173 | 23832 ft | 389 kts | 294° |
| 2026-04-28 08:41 | 36.68419 | 27.11076 | 24272 ft | 391 kts | 294° |
| 2026-04-28 08:42 | 36.69503 | 27.07966 | 24704 ft | 392 kts | 294° |
| 2026-04-28 08:42 | 36.70579 | 27.04877 | 25090 ft | 395 kts | 293° |
| 2026-04-28 08:42 | 36.71674 | 27.01724 | 25482 ft | 398 kts | 293° |
| 2026-04-28 08:42 | 36.72774 | 26.98555 | 25873 ft | 400 kts | 293° |
| 2026-04-28 08:43 | 36.73882 | 26.95367 | 26241 ft | 402 kts | 293° |
| 2026-04-28 08:43 | 36.74999 | 26.92153 | 26620 ft | 405 kts | 293° |
| 2026-04-28 08:43 | 36.76119 | 26.88925 | 27001 ft | 407 kts | 293° |
| 2026-04-28 08:43 | 36.77239 | 26.85679 | 27400 ft | 408 kts | 293° |
| 2026-04-28 08:44 | 36.78359 | 26.82422 | 27779 ft | 410 kts | 292° |
| 2026-04-28 08:44 | 36.79482 | 26.79164 | 28231 ft | 409 kts | 292° |
| 2026-04-28 08:44 | 36.80594 | 26.75933 | 28544 ft | 412 kts | 292° |
| 2026-04-28 08:44 | 36.81726 | 26.72649 | 28934 ft | 413 kts | 292° |
| 2026-04-28 08:45 | 36.82866 | 26.69342 | 29199 ft | 416 kts | 292° |
| 2026-04-28 08:45 | 36.84011 | 26.66014 | 29567 ft | 418 kts | 292° |
| 2026-04-28 08:45 | 36.85160 | 26.62668 | 29835 ft | 421 kts | 292° |
| 2026-04-28 08:45 | 36.86315 | 26.59300 | 30087 ft | 424 kts | 292° |
| 2026-04-28 08:46 | 36.87477 | 26.55911 | 30384 ft | 425 kts | 292° |
| 2026-04-28 08:46 | 36.88642 | 26.52512 | 30626 ft | 426 kts | 292° |
| 2026-04-28 08:46 | 36.89812 | 26.49101 | 30875 ft | 428 kts | 292° |
| 2026-04-28 08:46 | 36.90983 | 26.45671 | 31114 ft | 430 kts | 292° |
| 2026-04-28 08:47 | 36.92137 | 26.42278 | 31339 ft | 431 kts | 292° |
| 2026-04-28 08:47 | 36.93304 | 26.38835 | 31644 ft | 430 kts | 292° |
| 2026-04-28 08:47 | 36.94468 | 26.35394 | 31967 ft | 429 kts | 292° |
| 2026-04-28 08:48 | 36.96751 | 26.28649 | 32052 ft | 410 kts | 292° |
| 2026-04-28 08:48 | 36.98948 | 26.22158 | 32057 ft | 402 kts | 292° |
| 2026-04-28 08:49 | 37.01111 | 26.15787 | 32064 ft | 400 kts | 292° |
| 2026-04-28 08:49 | 37.03287 | 26.09394 | 32062 ft | 399 kts | 292° |
| 2026-04-28 08:50 | 37.05451 | 26.03005 | 32065 ft | 398 kts | 292° |
| 2026-04-28 08:50 | 37.07604 | 25.96616 | 32067 ft | 398 kts | 292° |
| 2026-04-28 08:51 | 37.09749 | 25.90235 | 32071 ft | 397 kts | 292° |
| 2026-04-28 08:51 | 37.11875 | 25.83905 | 32081 ft | 396 kts | 292° |
| 2026-04-28 08:52 | 37.14007 | 25.77547 | 32083 ft | 396 kts | 292° |
| 2026-04-28 08:52 | 37.16132 | 25.71187 | 32083 ft | 395 kts | 292° |
| 2026-04-28 08:53 | 37.18256 | 25.64838 | 32076 ft | 395 kts | 292° |
| 2026-04-28 08:53 | 37.20358 | 25.58526 | 32076 ft | 395 kts | 292° |
| 2026-04-28 08:54 | 37.22469 | 25.52165 | 32076 ft | 395 kts | 292° |
| 2026-04-28 08:54 | 37.24557 | 25.45797 | 32077 ft | 395 kts | 291° |
| 2026-04-28 08:55 | 37.26599 | 25.39406 | 32077 ft | 394 kts | 291° |
| 2026-04-28 08:55 | 37.28557 | 25.33020 | 32076 ft | 394 kts | 289° |
| 2026-04-28 08:56 | 37.30297 | 25.26498 | 32096 ft | 394 kts | 288° |
| 2026-04-28 08:56 | 37.31989 | 25.19962 | 32100 ft | 393 kts | 288° |
| 2026-04-28 08:57 | 37.33707 | 25.13439 | 32102 ft | 393 kts | 288° |
| 2026-04-28 08:57 | 37.35438 | 25.06973 | 32102 ft | 393 kts | 288° |
| 2026-04-28 08:58 | 37.37177 | 25.00462 | 32102 ft | 393 kts | 288° |
| 2026-04-28 08:58 | 37.38916 | 24.93953 | 32102 ft | 392 kts | 288° |
| 2026-04-28 08:59 | 37.40645 | 24.87444 | 32101 ft | 392 kts | 288° |
| 2026-04-28 08:59 | 37.42351 | 24.80976 | 32099 ft | 392 kts | 288° |
| 2026-04-28 09:00 | 37.44068 | 24.74472 | 32095 ft | 392 kts | 288° |
| 2026-04-28 09:00 | 37.45786 | 24.67962 | 32096 ft | 392 kts | 288° |
| 2026-04-28 09:01 | 37.47498 | 24.61454 | 32101 ft | 392 kts | 288° |
| 2026-04-28 09:01 | 37.49191 | 24.54981 | 32099 ft | 392 kts | 288° |
| 2026-04-28 09:02 | 37.50887 | 24.48465 | 32102 ft | 392 kts | 288° |
| 2026-04-28 09:02 | 37.52586 | 24.41945 | 32101 ft | 392 kts | 288° |
| 2026-04-28 09:03 | 37.54278 | 24.35427 | 32097 ft | 392 kts | 288° |
| 2026-04-28 09:03 | 37.55950 | 24.28943 | 32097 ft | 392 kts | 289° |
| 2026-04-28 09:04 | 37.57735 | 24.22453 | 32100 ft | 392 kts | 290° |
| 2026-04-28 09:04 | 37.59596 | 24.15992 | 32099 ft | 392 kts | 290° |
| 2026-04-28 09:05 | 37.61433 | 24.09520 | 32102 ft | 392 kts | 290° |
| 2026-04-28 09:05 | 37.63243 | 24.03030 | 32105 ft | 392 kts | 290° |
| 2026-04-28 09:06 | 37.65029 | 23.96579 | 32104 ft | 393 kts | 290° |
| 2026-04-28 09:06 | 37.66830 | 23.90069 | 32105 ft | 393 kts | 290° |
| 2026-04-28 09:07 | 37.68631 | 23.83565 | 32108 ft | 393 kts | 290° |
| 2026-04-28 09:07 | 37.70429 | 23.77045 | 32110 ft | 393 kts | 290° |
| 2026-04-28 09:08 | 37.72208 | 23.70574 | 32103 ft | 393 kts | 290° |
| 2026-04-28 09:08 | 37.73997 | 23.64042 | 32099 ft | 394 kts | 290° |
| 2026-04-28 09:09 | 37.75788 | 23.57503 | 32099 ft | 394 kts | 290° |
| 2026-04-28 09:09 | 37.77580 | 23.50959 | 32101 ft | 394 kts | 290° |
| 2026-04-28 09:10 | 37.79368 | 23.44414 | 32100 ft | 394 kts | 290° |
| 2026-04-28 09:10 | 37.81136 | 23.37905 | 32099 ft | 394 kts | 290° |
| 2026-04-28 09:11 | 37.82912 | 23.31338 | 32101 ft | 395 kts | 290° |
| 2026-04-28 09:11 | 37.84692 | 23.24754 | 32102 ft | 395 kts | 290° |
| 2026-04-28 09:12 | 37.86466 | 23.18163 | 32101 ft | 396 kts | 290° |
| 2026-04-28 09:12 | 37.88218 | 23.11613 | 32104 ft | 396 kts | 290° |
| 2026-04-28 09:13 | 37.89986 | 23.05012 | 32095 ft | 396 kts | 290° |
| 2026-04-28 09:13 | 37.91757 | 22.98399 | 32099 ft | 396 kts | 290° |
| 2026-04-28 09:14 | 37.93321 | 22.91707 | 31636 ft | 398 kts | 281° |
| 2026-04-28 09:14 | 37.93759 | 22.88260 | 31128 ft | 394 kts | 281° |
| 2026-04-28 09:14 | 37.94181 | 22.84915 | 30653 ft | 391 kts | 281° |
| 2026-04-28 09:14 | 37.94612 | 22.81523 | 30161 ft | 388 kts | 281° |
| 2026-04-28 09:15 | 37.95038 | 22.78159 | 29582 ft | 386 kts | 281° |
| 2026-04-28 09:15 | 37.95463 | 22.74811 | 29022 ft | 383 kts | 281° |
| 2026-04-28 09:15 | 37.95886 | 22.71494 | 28478 ft | 381 kts | 281° |
| 2026-04-28 09:15 | 37.96306 | 22.68195 | 27943 ft | 379 kts | 281° |
| 2026-04-28 09:16 | 37.96736 | 22.64918 | 27410 ft | 375 kts | 282° |
| 2026-04-28 09:16 | 37.97225 | 22.61674 | 26896 ft | 373 kts | 283° |
| 2026-04-28 09:16 | 37.97754 | 22.58464 | 26389 ft | 371 kts | 284° |
| 2026-04-28 09:16 | 37.98298 | 22.55279 | 25894 ft | 370 kts | 284° |
| 2026-04-28 09:17 | 37.98832 | 22.52145 | 25458 ft | 367 kts | 284° |
| 2026-04-28 09:17 | 37.99359 | 22.48996 | 25019 ft | 364 kts | 284° |
| 2026-04-28 09:17 | 37.99868 | 22.45873 | 24595 ft | 360 kts | 283° |
| 2026-04-28 09:17 | 38.00366 | 22.42778 | 24159 ft | 357 kts | 283° |
| 2026-04-28 09:18 | 38.00856 | 22.39705 | 23748 ft | 354 kts | 283° |
| 2026-04-28 09:18 | 38.01339 | 22.36662 | 23263 ft | 351 kts | 283° |
| 2026-04-28 09:18 | 38.01818 | 22.33641 | 22777 ft | 349 kts | 283° |
| 2026-04-28 09:18 | 38.02297 | 22.30633 | 22291 ft | 346 kts | 283° |
| 2026-04-28 09:19 | 38.02774 | 22.27647 | 21817 ft | 345 kts | 283° |
| 2026-04-28 09:19 | 38.03241 | 22.24712 | 21360 ft | 343 kts | 283° |
| 2026-04-28 09:19 | 38.03710 | 22.21752 | 20900 ft | 342 kts | 283° |
| 2026-04-28 09:19 | 38.04174 | 22.18804 | 20450 ft | 340 kts | 283° |
| 2026-04-28 09:20 | 38.04637 | 22.15872 | 20010 ft | 339 kts | 283° |
| 2026-04-28 09:20 | 38.05100 | 22.12942 | 19567 ft | 338 kts | 283° |
| 2026-04-28 09:20 | 38.05561 | 22.10027 | 19137 ft | 337 kts | 283° |
| 2026-04-28 09:20 | 38.06018 | 22.07122 | 18796 ft | 333 kts | 283° |
| 2026-04-28 09:21 | 38.06461 | 22.04290 | 18609 ft | 324 kts | 283° |
| 2026-04-28 09:21 | 38.06891 | 22.01539 | 18287 ft | 321 kts | 283° |
| 2026-04-28 09:21 | 38.07322 | 21.98768 | 17872 ft | 319 kts | 283° |
| 2026-04-28 09:21 | 38.07752 | 21.96014 | 17473 ft | 318 kts | 283° |
| 2026-04-28 09:22 | 38.08182 | 21.93272 | 17069 ft | 316 kts | 283° |
| 2026-04-28 09:22 | 38.08609 | 21.90535 | 16695 ft | 315 kts | 283° |
| 2026-04-28 09:22 | 38.09030 | 21.87814 | 16331 ft | 314 kts | 283° |
| 2026-04-28 09:22 | 38.09449 | 21.85097 | 15973 ft | 313 kts | 283° |
| 2026-04-28 09:23 | 38.09866 | 21.82398 | 15614 ft | 311 kts | 282° |
| 2026-04-28 09:23 | 38.10278 | 21.79737 | 15263 ft | 310 kts | 283° |
| 2026-04-28 09:23 | 38.10693 | 21.77051 | 14924 ft | 309 kts | 282° |
| 2026-04-28 09:23 | 38.11105 | 21.74379 | 14581 ft | 308 kts | 282° |
| 2026-04-28 09:24 | 38.11516 | 21.71713 | 14239 ft | 307 kts | 282° |
| 2026-04-28 09:24 | 38.11926 | 21.69052 | 13897 ft | 306 kts | 282° |
| 2026-04-28 09:24 | 38.12332 | 21.66400 | 13526 ft | 305 kts | 282° |
| 2026-04-28 09:24 | 38.12737 | 21.63760 | 13162 ft | 304 kts | 282° |
| 2026-04-28 09:25 | 38.13140 | 21.61132 | 12795 ft | 303 kts | 282° |
| 2026-04-28 09:25 | 38.13540 | 21.58513 | 12465 ft | 302 kts | 282° |
| 2026-04-28 09:25 | 38.13936 | 21.55898 | 12207 ft | 301 kts | 282° |
| 2026-04-28 09:25 | 38.14332 | 21.53288 | 11940 ft | 301 kts | 282° |
| 2026-04-28 09:26 | 38.14725 | 21.50718 | 11704 ft | 300 kts | 281° |
| 2026-04-28 09:26 | 38.15121 | 21.48122 | 11454 ft | 299 kts | 281° |
| 2026-04-28 09:26 | 38.15294 | 21.45506 | 11205 ft | 298 kts | 267° |
| 2026-04-28 09:26 | 38.14915 | 21.42923 | 10956 ft | 298 kts | 251° |
| 2026-04-28 09:27 | 38.12679 | 21.38565 | 10476 ft | 297 kts | 227° |
| 2026-04-28 09:27 | 38.11265 | 21.36660 | 10235 ft | 296 kts | 227° |
| 2026-04-28 09:27 | 38.09858 | 21.34760 | 9995 ft | 294 kts | 226° |
| 2026-04-28 09:28 | 38.08489 | 21.32909 | 9839 ft | 290 kts | 227° |
| 2026-04-28 09:28 | 38.07310 | 21.30854 | 9705 ft | 289 kts | 242° |
| 2026-04-28 09:28 | 38.06367 | 21.28617 | 9429 ft | 285 kts | 242° |
| 2026-04-28 09:28 | 38.05439 | 21.26404 | 9046 ft | 283 kts | 242° |
| 2026-04-28 09:29 | 38.04515 | 21.24200 | 8656 ft | 282 kts | 242° |
| 2026-04-28 09:29 | 38.03596 | 21.22010 | 8262 ft | 281 kts | 242° |
| 2026-04-28 09:29 | 38.02679 | 21.19827 | 7858 ft | 280 kts | 242° |
| 2026-04-28 09:29 | 38.01764 | 21.17647 | 7445 ft | 280 kts | 242° |
| 2026-04-28 09:30 | 38.00851 | 21.15474 | 7023 ft | 277 kts | 243° |
| 2026-04-28 09:30 | 37.99972 | 21.13387 | 6628 ft | 266 kts | 242° |
| 2026-04-28 09:30 | 37.99116 | 21.11358 | 6221 ft | 256 kts | 242° |
| 2026-04-28 09:30 | 37.98293 | 21.09413 | 5824 ft | 246 kts | 242° |
| 2026-04-28 09:31 | 37.97506 | 21.07557 | 5606 ft | 231 kts | 242° |
| 2026-04-28 09:31 | 37.96758 | 21.05790 | 5207 ft | 226 kts | 242° |
| 2026-04-28 09:31 | 37.96021 | 21.04045 | 4765 ft | 223 kts | 242° |
| 2026-04-28 09:31 | 37.95294 | 21.02319 | 4335 ft | 220 kts | 242° |
| 2026-04-28 09:32 | 37.94601 | 21.00678 | 4190 ft | 204 kts | 242° |
| 2026-04-28 09:32 | 37.93952 | 20.99141 | 3887 ft | 197 kts | 242° |
| 2026-04-28 09:32 | 37.93309 | 20.97623 | 3445 ft | 195 kts | 242° |
| 2026-04-28 09:32 | 37.92806 | 20.96037 | 2954 ft | 194 kts | 252° |
| 2026-04-28 09:33 | 37.92438 | 20.94397 | 2632 ft | 193 kts | 254° |
| 2026-04-28 09:33 | 37.92087 | 20.92745 | 2611 ft | 195 kts | 254° |
| 2026-04-28 09:33 | 37.91735 | 20.91081 | 2612 ft | 196 kts | 254° |
| 2026-04-28 09:33 | 37.91392 | 20.89453 | 2604 ft | 183 kts | 254° |
| 2026-04-28 09:34 | 37.91080 | 20.87974 | 2601 ft | 165 kts | 254° |
| 2026-04-28 09:34 | 37.90801 | 20.86651 | 2603 ft | 152 kts | 254° |
| 2026-04-28 09:34 | 37.90531 | 20.85383 | 2600 ft | 147 kts | 251° |
| 2026-04-28 09:34 | 37.89979 | 20.84333 | 2605 ft | 145 kts | 216° |
| 2026-04-28 09:35 | 37.89037 | 20.83940 | 2613 ft | 146 kts | 181° |
| 2026-04-28 09:35 | 37.88018 | 20.83921 | 2609 ft | 146 kts | 185° |
| 2026-04-28 09:35 | 37.87006 | 20.84014 | 2596 ft | 148 kts | 167° |
| 2026-04-28 09:35 | 37.86000 | 20.84363 | 2321 ft | 148 kts | 166° |
| 2026-04-28 09:36 | 37.85013 | 20.84714 | 2086 ft | 146 kts | 165° |
| 2026-04-28 09:36 | 37.84040 | 20.85064 | 1837 ft | 143 kts | 165° |
| 2026-04-28 09:36 | 37.83083 | 20.85407 | 1735 ft | 143 kts | 165° |
| 2026-04-28 09:36 | 37.82156 | 20.85746 | 1524 ft | 139 kts | 164° |
| 2026-04-28 09:37 | 37.81222 | 20.86113 | 1216 ft | 142 kts | 163° |
| 2026-04-28 09:37 | 37.80292 | 20.86484 | 992 ft | 140 kts | 162° |
| 2026-04-28 09:37 | 37.79353 | 20.86870 | 830 ft | 144 kts | 163° |
| 2026-04-28 09:37 | 37.78396 | 20.87217 | 633 ft | 141 kts | 164° |
| 2026-04-28 09:38 | 37.77469 | 20.87563 | 410 ft | 137 kts | 163° |
| 2026-04-28 09:38 | 37.76579 | 20.87883 | 202 ft | 133 kts | 162° |
| 2026-04-28 09:38 | 37.75706 | 20.88200 | 26 ft | 122 kts | 162° |
| 2026-04-28 09:38 | 37.75036 | 20.88448 | 14 ft | 67 kts | 163° |
| 2026-04-28 09:39 | 37.74821 | 20.88527 | 18 ft | 18 kts | 163° |
| 2026-04-28 09:39 | 37.74699 | 20.88575 | 17 ft | 19 kts | 163° |
| 2026-04-28 09:39 | 37.74606 | 20.88583 | 17 ft | 6 kts | 122° |
| 2026-04-28 09:39 | 37.74634 | 20.88592 | 18 ft | 13 kts | 355° |
| 2026-04-28 09:40 | 37.74738 | 20.88557 | 17 ft | 15 kts | 346° |
| 2026-04-28 09:40 | 37.74833 | 20.88522 | 16 ft | 14 kts | 344° |
| 2026-04-28 09:40 | 37.74921 | 20.88490 | 14 ft | 12 kts | 344° |
| 2026-04-28 09:40 | 37.74987 | 20.88466 | 14 ft | 8 kts | 345° |
| 2026-04-28 09:41 | 37.75037 | 20.88476 | 14 ft | 6 kts | 18° |
| 2026-04-28 09:41 | 37.75070 | 20.88492 | 15 ft | 4 kts | 28° |
| 2026-04-28 09:41 | 37.75135 | 20.88526 | 16 ft | 15 kts | 5° |
| 2026-04-28 09:41 | 37.75232 | 20.88491 | 16 ft | 14 kts | 342° |
| 2026-04-28 09:42 | 37.75320 | 20.88459 | 15 ft | 13 kts | 344° |
| 2026-04-28 09:42 | 37.75400 | 20.88435 | 15 ft | 10 kts | 9° |
| 2026-04-28 09:42 | 37.75406 | 20.88484 | 16 ft | 3 kts | 98° |
| 2026-04-28 09:42 | 37.75404 | 20.88506 | 16 ft | 2 kts | 93° |
| 2026-04-28 09:43 | 37.75404 | 20.88520 | 16 ft | 1 kts | 86° |
| 2026-04-28 09:43 | 37.75406 | 20.88541 | 16 ft | 0 kts | 83° |